Time;durP1;ratioP1;P1;durP2;ratioP2;P2;SDS_P1;SDS_P2;PMS_P1;PMS_P2;Temp;Humidity;BMP_temperature;BMP_pressure;BME280_temperature;BME280_humidity;BME280_pressure;Samples;Min_cycle;Max_cycle;Signal;HPM_P1;HPM_P2
2023/11/09 00:00:24;;;;;;;;;;;;;;;;;;6270490;28;19917;-85
2023/11/09 00:03:26;;;;;;;;;;;;;;;;;;6268623;28;20039;-84
2023/11/09 00:06:26;;;;;;;;;;;;;;;;;;6287143;28;19963;-84
2023/11/09 00:09:26;;;;;;;;;;;;;;;;;;6270271;28;20350;-84
2023/11/09 00:12:26;;;;;;;;;;;;;;;;;;6270906;28;20011;-85
2023/11/09 00:15:26;;;;;;;;;;;;;;;;;;6271440;28;20465;-84
2023/11/09 00:18:26;;;;;;;;;;;;;;;;;;6271960;28;19924;-84
2023/11/09 00:21:27;;;;;;;;;;;;;;;;;;6265092;28;19916;-85
2023/11/09 00:24:27;;;;;;;;;;;;;;;;;;6268405;28;19920;-84
2023/11/09 00:27:27;;;;;;;;;;;;;;;;;;6284730;28;19923;-86
2023/11/09 00:30:28;;;;;;;;;;;;;;;;;;6272542;28;19921;-84
2023/11/09 00:33:28;;;;;;;;;;;;;;;;;;6288186;28;19970;-85
2023/11/09 00:36:28;;;;;;;;;;;;;;;;;;6273148;28;19999;-84
2023/11/09 00:39:30;;;;;;;;;;;;;;;;;;6271628;28;20007;-83
2023/11/09 00:42:30;;;;;;;;;;;;;;;;;;6271914;28;19916;-84
2023/11/09 00:45:34;;;;;;;;;;;;;;;;;;6287963;28;20288;-84
2023/11/09 00:48:34;;;;;;;;;;;;;;;;;;6267971;28;19917;-84
2023/11/09 00:51:34;;;;;;;;;;;;;;;;;;6268381;28;19924;-84
2023/11/09 00:54:35;;;;;;;;;;;;;;;;;;6284841;28;19947;-84
2023/11/09 00:57:35;;;;;;;;;;;;;;;;;;6269149;28;19952;-85
2023/11/09 01:00:35;;;;;;;;;;;;;;;;;;6273765;28;19916;-85
2023/11/09 01:03:35;;;;;;;;;;;;;;;;;;6293692;28;19917;-85
2023/11/09 01:06:35;;;;;;;;;;;;;;;;;;6285640;28;19946;-85
2023/11/09 01:09:35;;;;;;;;;;;;;;;;;;6276872;28;19964;-85
2023/11/09 01:12:36;;;;;;;;;;;;;;;;;;6273440;28;19913;-84
2023/11/09 01:15:36;;;;;;;;;;;;;;;;;;6277812;28;19929;-84
2023/11/09 01:18:36;;;;;;;;;;;;;;;;;;6289414;28;19967;-84
2023/11/09 01:21:36;;;;;;;;;;;;;;;;;;6274054;28;19967;-84
2023/11/09 01:24:36;;;;;;;;;;;;;;;;;;6273019;28;19962;-84
2023/11/09 01:27:37;;;;;;;;;;;;;;;;;;6271369;28;19920;-84
2023/11/09 01:30:37;;;;;;;;;;;;;;;;;;6291858;28;19913;-85
2023/11/09 01:33:37;;;;;;;;;;;;;;;;;;6272638;28;19928;-86
2023/11/09 01:36:37;;;;;;;;;;;;;;;;;;6287712;28;19963;-84
2023/11/09 01:39:39;;;;;;;;;;;;;;;;;;6276267;28;19931;-84
2023/11/09 01:42:39;;;;;;;;;;;;;;;;;;6273110;28;20377;-84
2023/11/09 01:45:39;;;;;;;;;;;;;;;;;;6272843;28;20341;-84
2023/11/09 01:48:40;;;;;;;;;;;;;;;;;;6273156;28;19938;-84
2023/11/09 01:51:40;;;;;;;;;;;;;;;;;;6272120;28;19916;-84
2023/11/09 01:54:47;;;;;;;;;;;;;;;;;;6182301;28;10000335;-84
2023/11/09 01:57:47;;;;;;;;;;;;;;;;;;6277187;28;19918;-84
2023/11/09 02:00:48;;;;;;;;;;;;;;;;;;6275666;28;19917;-84
2023/11/09 02:03:48;;;;;;;;;;;;;;;;;;6291156;28;19955;-84
2023/11/09 02:06:48;;;;;;;;;;;;;;;;;;6278768;28;19967;-84
2023/11/09 02:09:51;;;;;;;;;;;;;;;;;;6288691;28;19913;-85
2023/11/09 02:12:51;;;;;;;;;;;;;;;;;;6274830;28;19970;-84
2023/11/09 02:15:54;;;;;;;;;;;;;;;;;;6291625;28;19993;-85
2023/11/09 02:18:54;;;;;;;;;;;;;;;;;;6273098;28;20456;-85
2023/11/09 02:21:54;;;;;;;;;;;;;;;;;;6273829;28;19913;-83
2023/11/09 02:24:54;;;;;;;;;;;;;;;;;;6292974;28;19916;-85
2023/11/09 02:27:54;;;;;;;;;;;;;;;;;;6275829;28;19913;-84
2023/11/09 02:30:54;;;;;;;;;;;;;;;;;;6274715;28;20280;-85
2023/11/09 02:33:55;;;;;;;;;;;;;;;;;;6274758;28;20220;-85
2023/11/09 02:36:55;;;;;;;;;;;;;;;;;;6290952;28;19916;-84
2023/11/09 02:39:56;;;;;;;;;;;;;;;;;;6275672;28;19929;-85
2023/11/09 02:42:56;;;;;;;;;;;;;;;;;;6274276;28;19912;-84
2023/11/09 02:45:57;;;;;;;;;;;;;;;;;;6276082;28;20049;-84
2023/11/09 02:48:57;;;;;;;;;;;;;;;;;;6293624;28;19916;-84
2023/11/09 02:51:58;;;;;;;;;;;;;;;;;;6289542;28;19912;-84
2023/11/09 02:54:59;;;;;;;;;;;;;;;;;;6274171;28;20282;-84
2023/11/09 02:57:59;;;;;;;;;;;;;;;;;;6277471;28;19959;-84
2023/11/09 03:00:59;;;;;;;;;;;;;;;;;;6287599;28;19927;-84
2023/11/09 03:03:59;;;;;;;;;;;;;;;;;;6296208;28;20293;-84
2023/11/09 03:06:59;;;;;;;;;;;;;;;;;;6290459;28;20392;-83
2023/11/09 03:10:00;;;;;;;;;;;;;;;;;;6279529;28;19913;-92
2023/11/09 03:13:01;;;;;;;;;;;;;;;;;;6298246;28;19913;-91
2023/11/09 03:16:01;;;;;;;;;;;;;;;;;;6316735;28;19916;-92
2023/11/09 03:19:02;;;;;;;;;;;;;;;;;;6300860;28;19962;-92
2023/11/09 03:22:03;;;;;;;;;;;;;;;;;;6275490;28;19921;-91
2023/11/09 03:25:03;;;;;;;;;;;;;;;;;;6304206;28;19920;-89
2023/11/09 03:28:03;;;;;;;;;;;;;;;;;;6298132;28;19916;-92
2023/11/09 03:31:04;;;;;;;;;;;;;;;;;;6295841;28;20058;-91
2023/11/09 03:34:04;;;;;;;;;;;;;;;;;;6282218;28;19920;-91
2023/11/09 03:37:04;;;;;;;;;;;;;;;;;;6300248;28;19919;-91
2023/11/09 03:40:06;;;;;;;;;;;;;;;;;;6300018;28;19921;-91
2023/11/09 03:43:06;;;;;;;;;;;;;;;;;;6312139;28;20307;-90
2023/11/09 03:46:06;;;;;;;;;;;;;;;;;;6300372;28;19908;-90
2023/11/09 03:49:07;;;;;;;;;;;;;;;;;;6293275;28;19921;-91
2023/11/09 03:52:07;;;;;;;;;;;;;;;;;;6288043;28;20053;-91
2023/11/09 03:55:07;;;;;;;;;;;;;;;;;;6298528;28;19916;-92
2023/11/09 03:58:08;;;;;;;;;;;;;;;;;;5933765;28;10000144;-91
2023/11/09 04:01:09;;;;;;;;;;;;;;;;;;6297326;28;20301;-91
2023/11/09 04:04:09;;;;;;;;;;;;;;;;;;6316474;28;19959;-91
2023/11/09 04:07:10;;;;;;;;;;;;;;;;;;6280086;28;19992;-91
2023/11/09 04:10:11;;;;;;;;;;;;;;;;;;6274454;28;19908;-91
2023/11/09 04:13:11;;;;;;;;;;;;;;;;;;6291662;28;20001;-92
2023/11/09 04:16:11;;;;;;;;;;;;;;;;;;6316024;28;19916;-91
2023/11/09 04:19:11;;;;;;;;;;;;;;;;;;6283963;28;20335;-84
2023/11/09 04:22:11;;;;;;;;;;;;;;;;;;6294630;28;19913;-83
2023/11/09 04:25:12;;;;;;;;;;;;;;;;;;6281818;28;20369;-84
2023/11/09 04:28:12;;;;;;;;;;;;;;;;;;6272811;28;19916;-84
2023/11/09 04:31:14;;;;;;;;;;;;;;;;;;6273906;28;20026;-84
2023/11/09 04:34:15;;;;;;;;;;;;;;;;;;6284605;28;19975;-85
2023/11/09 04:37:15;;;;;;;;;;;;;;;;;;6270871;28;20495;-84
2023/11/09 04:40:15;;;;;;;;;;;;;;;;;;6284154;28;20369;-84
2023/11/09 04:43:17;;;;;;;;;;;;;;;;;;6278192;28;19924;-84
2023/11/09 04:46:19;;;;;;;;;;;;;;;;;;6271405;28;20341;-85
2023/11/09 04:49:20;;;;;;;;;;;;;;;;;;6273402;28;20309;-83
2023/11/09 04:52:25;;;;;;;;;;;;;;;;;;6275896;28;19920;-84
2023/11/09 04:55:32;;;;;;;;;;;;;;;;;;6273837;28;19920;-84
2023/11/09 04:58:47;;;;;;;;;;;;;;;;;;6288057;28;19958;-84
2023/11/09 05:08:25;;;;;;;;;;;;;;;;;;6275030;28;19920;-84
2023/11/09 05:11:25;;;;;;;;;;;;;;;;;;6305376;28;19923;-85
2023/11/09 05:14:25;;;;;;;;;;;;;;;;;;6295478;28;19920;-84
2023/11/09 05:17:25;;;;;;;;;;;;;;;;;;6270100;28;20435;-84
2023/11/09 05:20:26;;;;;;;;;;;;;;;;;;6285792;28;19919;-84
2023/11/09 05:23:26;;;;;;;;;;;;;;;;;;6295728;28;20050;-84
2023/11/09 05:26:26;;;;;;;;;;;;;;;;;;6306738;28;19959;-84
2023/11/09 05:29:26;;;;;;;;;;;;;;;;;;6289538;28;20049;-84
2023/11/09 05:32:27;;;;;;;;;;;;;;;;;;6295539;28;19958;-84
2023/11/09 05:35:28;;;;;;;;;;;;;;;;;;6290291;28;20015;-83
2023/11/09 05:38:28;;;;;;;;;;;;;;;;;;6299878;28;19927;-83
2023/11/09 05:41:29;;;;;;;;;;;;;;;;;;6278674;28;19912;-84
2023/11/09 05:44:29;;;;;;;;;;;;;;;;;;6296618;28;19920;-83
2023/11/09 05:47:29;;;;;;;;;;;;;;;;;;6303271;28;19912;-83
2023/11/09 05:50:31;;;;;;;;;;;;;;;;;;6299332;28;19909;-83
2023/11/09 05:53:31;;;;;;;;;;;;;;;;;;6311225;28;19919;-84
2023/11/09 05:56:31;;;;;;;;;;;;;;;;;;6299175;28;19913;-84
2023/11/09 05:59:31;;;;;;;;;;;;;;;;;;6300147;28;19909;-84
2023/11/09 06:02:31;;;;;;;;;;;;;;;;;;6300603;28;19908;-84
2023/11/09 06:05:31;;;;;;;;;;;;;;;;;;6297674;28;19909;-83
2023/11/09 06:08:34;;;;;;;;;;;;;;;;;;6299495;28;19916;-84
2023/11/09 06:11:34;;;;;;;;;;;;;;;;;;6280403;28;19962;-84
2023/11/09 06:14:35;;;;;;;;;;;;;;;;;;6299453;28;20357;-84
2023/11/09 06:17:38;;;;;;;;;;;;;;;;;;6297136;28;19947;-84
2023/11/09 06:20:38;;;;;;;;;;;;;;;;;;6312577;28;20428;-84
2023/11/09 06:23:39;;;;;;;;;;;;;;;;;;6282170;28;19916;-84
2023/11/09 06:26:39;;;;;;;;;;;;;;;;;;6314698;28;19912;-84
2023/11/09 06:29:39;;;;;;;;;;;;;;;;;;6297799;28;19944;-84
2023/11/09 06:32:40;;;;;;;;;;;;;;;;;;6296232;28;20006;-84
2023/11/09 06:35:40;;;;;;;;;;;;;;;;;;6294343;28;19921;-84
2023/11/09 06:38:41;;;;;;;;;;;;;;;;;;6286236;28;19924;-84
2023/11/09 06:41:41;;;;;;;;;;;;;;;;;;6279335;28;19912;-83
2023/11/09 06:44:41;;;;;;;;;;;;;;;;;;6298718;28;20383;-84
2023/11/09 06:47:41;;;;;;;;;;;;;;;;;;6294097;28;20365;-84
2023/11/09 06:50:42;;;;;;;;;;;;;;;;;;6282326;28;20349;-90
2023/11/09 06:53:42;;;;;;;;;;;;;;;;;;6297925;28;19916;-90
2023/11/09 06:56:42;;;;;;;;;;;;;;;;;;6289634;28;20263;-91
2023/11/09 06:59:42;;;;;;;;;;;;;;;;;;6290743;28;19959;-89
2023/11/09 07:02:47;;;;;;;;;;;;;;;;;;6283705;28;19912;-92
2023/11/09 07:05:47;;;;;;;;;;;;;;;;;;6278579;28;19920;-92
2023/11/09 07:08:49;;;;;;;;;;;;;;;;;;6278105;28;19928;-89
2023/11/09 07:11:52;;;;;;;;;;;;;;;;;;6290870;28;19917;-90
2023/11/09 07:14:52;;;;;;;;;;;;;;;;;;6290488;28;19987;-90
2023/11/09 07:17:53;;;;;;;;;;;;;;;;;;6282764;28;19921;-88
2023/11/09 07:20:53;;;;;;;;;;;;;;;;;;6277808;28;19920;-92
2023/11/09 07:23:59;;;;;;;;;;;;;;;;;;6283465;28;19998;-90
2023/11/09 07:26:59;;;;;;;;;;;;;;;;;;6278636;28;19947;-91
2023/11/09 07:29:59;;;;;;;;;;;;;;;;;;6283669;28;21271;-92
2023/11/09 07:32:59;;;;;;;;;;;;;;;;;;6278741;28;19999;-91
2023/11/09 07:36:00;;;;;;;;;;;;;;;;;;6298594;28;19975;-90
2023/11/09 07:39:00;;;;;;;;;;;;;;;;;;6290780;28;19921;-90
2023/11/09 07:42:00;;;;;;;;;;;;;;;;;;6310304;28;19913;-91
2023/11/09 07:45:00;;;;;;;;;;;;;;;;;;6309477;28;19928;-91
2023/11/09 07:48:00;;;;;;;;;;;;;;;;;;6297585;28;19936;-91
2023/11/09 07:51:01;;;;;;;;;;;;;;;;;;6282594;28;19937;-93
2023/11/09 07:54:01;;;;;;;;;;;;;;;;;;6296770;28;20007;-92
2023/11/09 07:57:01;;;;;;;;;;;;;;;;;;6295445;28;19912;-89
2023/11/09 08:00:04;;;;;;;;;;;;;;;;;;6280241;28;19982;-85
2023/11/09 08:03:06;;;;;;;;;;;;;;;;;;6282542;28;19913;-85
2023/11/09 08:06:07;;;;;;;;;;;;;;;;;;6280947;28;20412;-85
2023/11/09 08:09:09;;;;;;;;;;;;;;;;;;6290237;28;19982;-84
2023/11/09 08:12:09;;;;;;;;;;;;;;;;;;6291185;28;20367;-84
2023/11/09 08:15:13;;;;;;;;;;;;;;;;;;6293988;28;19935;-85
2023/11/09 08:18:14;;;;;;;;;;;;;;;;;;6282543;28;20048;-84
2023/11/09 08:21:15;;;;;;;;;;;;;;;;;;6285732;28;19913;-85
2023/11/09 08:24:16;;;;;;;;;;;;;;;;;;6277119;28;20010;-85
2023/11/09 08:27:17;;;;;;;;;;;;;;;;;;6312309;28;19909;-84
2023/11/09 08:30:19;;;;;;;;;;;;;;;;;;6313397;28;19962;-84
2023/11/09 08:33:23;;;;;;;;;;;;;;;;;;6319700;28;19908;-85
2023/11/09 08:36:23;;;;;;;;;;;;;;;;;;6314343;28;20481;-85
2023/11/09 08:39:23;;;;;;;;;;;;;;;;;;6289968;28;19929;-84
2023/11/09 08:42:24;;;;;;;;;;;;;;;;;;6293370;28;20436;-84
2023/11/09 08:45:27;;;;;;;;;;;;;;;;;;6312893;28;20372;-84
2023/11/09 08:48:27;;;;;;;;;;;;;;;;;;6288573;28;19967;-84
2023/11/09 08:51:28;;;;;;;;;;;;;;;;;;6275029;28;20319;-83
2023/11/09 08:54:28;;;;;;;;;;;;;;;;;;6281789;28;20003;-84
2023/11/09 08:57:31;;;;;;;;;;;;;;;;;;6273470;28;19916;-84
2023/11/09 09:00:34;;;;;;;;;;;;;;;;;;6294861;28;19958;-84
2023/11/09 09:03:35;;;;;;;;;;;;;;;;;;6290620;28;19951;-84
2023/11/09 09:06:35;;;;;;;;;;;;;;;;;;6274334;28;19917;-84
2023/11/09 09:09:37;;;;;;;;;;;;;;;;;;6317375;28;19920;-94
2023/11/09 09:12:37;;;;;;;;;;;;;;;;;;6283936;28;19999;-95
2023/11/09 09:15:39;;;;;;;;;;;;;;;;;;6311363;28;19924;-93
2023/11/09 09:18:39;;;;;;;;;;;;;;;;;;6298972;28;20410;-91
2023/11/09 09:21:40;;;;;;;;;;;;;;;;;;6295647;28;19912;-91
2023/11/09 09:24:40;;;;;;;;;;;;;;;;;;6315281;28;19932;-93
2023/11/09 09:27:41;;;;;;;;;;;;;;;;;;6293009;28;20393;-92
2023/11/09 09:30:41;;;;;;;;;;;;;;;;;;6283597;28;19916;-92
2023/11/09 09:33:41;;;;;;;;;;;;;;;;;;6293311;28;19913;-90
2023/11/09 09:36:41;;;;;;;;;;;;;;;;;;6296479;28;19932;-91
2023/11/09 09:39:42;;;;;;;;;;;;;;;;;;6304427;28;20007;-93
2023/11/09 09:42:43;;;;;;;;;;;;;;;;;;6295473;28;19999;-93
2023/11/09 09:45:46;;;;;;;;;;;;;;;;;;6296616;28;19943;-93
2023/11/09 09:48:48;;;;;;;;;;;;;;;;;;6279109;28;19966;-93
2023/11/09 09:51:49;;;;;;;;;;;;;;;;;;6287119;28;19913;-91
2023/11/09 09:54:49;;;;;;;;;;;;;;;;;;6288068;28;19962;-91
2023/11/09 09:57:49;;;;;;;;;;;;;;;;;;6296541;28;19912;-93
2023/11/09 10:00:49;;;;;;;;;;;;;;;;;;6321254;28;20445;-91
2023/11/09 10:03:49;;;;;;;;;;;;;;;;;;6279654;28;19959;-92
2023/11/09 10:06:50;;;;;;;;;;;;;;;;;;6298738;28;19996;-92
2023/11/09 10:09:53;;;;;;;;;;;;;;;;;;6301198;28;19919;-93
2023/11/09 10:12:55;;;;;;;;;;;;;;;;;;6296418;28;19916;-91
2023/11/09 10:15:55;;;;;;;;;;;;;;;;;;6300050;28;19964;-93
2023/11/09 10:18:56;;;;;;;;;;;;;;;;;;6305684;28;20365;-92
2023/11/09 10:21:56;;;;;;;;;;;;;;;;;;6277324;28;20728;-92
2023/11/09 10:24:56;;;;;;;;;;;;;;;;;;6279004;28;19924;-91
2023/11/09 10:28:07;;;;;;;;;;;;;;;;;;6280208;28;19917;-93
2023/11/09 10:31:07;;;;;;;;;;;;;;;;;;6309969;28;19912;-92
2023/11/09 10:34:11;;;;;;;;;;;;;;;;;;6292336;28;19920;-94
2023/11/09 10:37:13;;;;;;;;;;;;;;;;;;6297947;28;20361;-93
2023/11/09 10:40:13;;;;;;;;;;;;;;;;;;6295691;28;19925;-95
2023/11/09 10:43:14;;;;;;;;;;;;;;;;;;6294762;28;19909;-94
2023/11/09 10:46:16;;;;;;;;;;;;;;;;;;6291257;28;20383;-92
2023/11/09 10:49:16;;;;;;;;;;;;;;;;;;6299288;28;19958;-92
2023/11/09 10:52:16;;;;;;;;;;;;;;;;;;6308645;28;19912;-93
2023/11/09 10:55:16;;;;;;;;;;;;;;;;;;6282178;28;20366;-93
2023/11/09 10:58:23;;;;;;;;;;;;;;;;;;6286188;28;19913;-93
2023/11/09 11:01:23;;;;;;;;;;;;;;;;;;6297004;28;19927;-91
2023/11/09 11:04:25;;;;;;;;;;;;;;;;;;6310952;28;19913;-92
2023/11/09 11:07:27;;;;;;;;;;;;;;;;;;6314885;28;19919;-94
2023/11/09 11:10:30;;;;;;;;;;;;;;;;;;6288483;28;19920;-94
2023/11/09 11:13:32;;;;;;;;;;;;;;;;;;6282851;28;19913;-94
2023/11/09 11:16:32;;;;;;;;;;;;;;;;;;6317047;28;19920;-93
2023/11/09 11:19:33;;;;;;;;;;;;;;;;;;6297045;28;20452;-91
2023/11/09 11:22:35;;;;;;;;;;;;;;;;;;6314767;28;19917;-91
2023/11/09 11:25:36;;;;;;;;;;;;;;;;;;6295864;28;19924;-91
2023/11/09 11:28:59;;;;;;;;;;;;;;;;;;6321861;28;19913;-83
2023/11/09 11:31:57;;;;;;;;;;;;;;;;;;6323510;28;19938;-83
2023/11/09 11:34:57;;;;;;;;;;;;;;;;;;6297956;28;20289;-82
2023/11/09 11:37:58;;;;;;;;;;;;;;;;;;6303179;28;19919;-84
2023/11/09 11:41:00;;;;;;;;;;;;;;;;;;6279717;28;19912;-83
2023/11/09 11:44:00;;;;;;;;;;;;;;;;;;6296782;28;19912;-83
2023/11/09 11:47:00;;;;;;;;;;;;;;;;;;6278062;28;19919;-82
2023/11/09 11:50:00;;;;;;;;;;;;;;;;;;6312855;28;19916;-82
2023/11/09 11:53:00;;;;;;;;;;;;;;;;;;6292615;28;19995;-83
2023/11/09 11:56:00;;;;;;;;;;;;;;;;;;6293720;28;19927;-83
2023/11/09 11:59:01;;;;;;;;;;;;;;;;;;6296575;28;19913;-83
2023/11/09 12:02:01;;;;;;;;;;;;;;;;;;6287015;28;19923;-83
2023/11/09 12:05:02;;;;;;;;;;;;;;;;;;6312990;28;19912;-83
2023/11/09 12:08:02;;;;;;;;;;;;;;;;;;6292153;28;19995;-84
2023/11/09 12:11:03;;;;;;;;;;;;;;;;;;6309481;28;19926;-84
2023/11/09 12:14:08;;;;;;;;;;;;;;;;;;6300010;28;19925;-84
2023/11/09 12:17:09;;;;;;;;;;;;;;;;;;6288558;28;19915;-83
2023/11/09 12:20:11;;;;;;;;;;;;;;;;;;6302397;28;19928;-83
2023/11/09 12:23:11;;;;;;;;;;;;;;;;;;6304642;28;20262;-83
2023/11/09 12:26:11;;;;;;;;;;;;;;;;;;6299406;28;19963;-83
2023/11/09 12:29:11;;;;;;;;;;;;;;;;;;6311500;28;20347;-84
2023/11/09 12:32:12;;;;;;;;;;;;;;;;;;6296654;28;19954;-83
2023/11/09 12:35:12;;;;;;;;;;;;;;;;;;6289074;28;19921;-83
2023/11/09 12:38:12;;;;;;;;;;;;;;;;;;6294693;28;19928;-82
2023/11/09 12:41:13;;;;;;;;;;;;;;;;;;6297706;28;19912;-83
2023/11/09 12:44:14;;;;;;;;;;;;;;;;;;6275572;28;19917;-84
2023/11/09 12:47:20;;;;;;;;;;;;;;;;;;6274009;28;20333;-83
2023/11/09 12:50:20;;;;;;;;;;;;;;;;;;6282441;28;19948;-83
2023/11/09 12:53:21;;;;;;;;;;;;;;;;;;6277258;28;19913;-83
2023/11/09 12:56:21;;;;;;;;;;;;;;;;;;6289935;28;19928;-84
2023/11/09 12:59:24;;;;;;;;;;;;;;;;;;6298537;28;19909;-83
2023/11/09 13:02:42;;;;;;;;;;;;;;;;;;6309350;28;19917;-84
2023/11/09 13:05:44;;;;;;;;;;;;;;;;;;6275323;28;19921;-84
2023/11/09 13:08:44;;;;;;;;;;;;;;;;;;6308479;28;19924;-83
2023/11/09 13:11:46;;;;;;;;;;;;;;;;;;6301307;28;20056;-83
2023/11/09 13:14:53;;;;;;;;;;;;;;;;;;6297257;28;20012;-83
2023/11/09 13:17:56;;;;;;;;;;;;;;;;;;6300366;28;20432;-83
2023/11/09 13:20:56;;;;;;;;;;;;;;;;;;6313516;28;20055;-83
2023/11/09 13:23:58;;;;;;;;;;;;;;;;;;6294898;28;19925;-83
2023/11/09 13:26:58;;;;;;;;;;;;;;;;;;6292255;28;20391;-83
2023/11/09 13:29:59;;;;;;;;;;;;;;;;;;6312308;28;19919;-83
2023/11/09 13:33:14;;;;;;;;;;;;;;;;;;6302413;28;19912;-83
2023/11/09 13:36:16;;;;;;;;;;;;;;;;;;6296236;28;19920;-83
2023/11/09 13:42:36;;;;;;;;;;;;;;;;;;6304776;28;19909;-83
2023/11/09 13:45:39;;;;;;;;;;;;;;;;;;6300557;28;19916;-83
2023/11/09 13:48:43;;;;;;;;;;;;;;;;;;6295920;28;20365;-91
2023/11/09 13:52:13;;;;;;;;;;;;;;;;;;6278075;28;19920;-90
2023/11/09 13:55:13;;;;;;;;;;;;;;;;;;6298366;28;19924;-90
2023/11/09 13:58:23;;;;;;;;;;;;;;;;;;6304677;28;20403;-91
2023/11/09 14:01:30;;;;;;;;;;;;;;;;;;6301502;28;20006;-90
2023/11/09 14:04:30;;;;;;;;;;;;;;;;;;6317050;28;20277;-91
2023/11/09 14:07:33;;;;;;;;;;;;;;;;;;6297230;28;19943;-91
2023/11/09 14:10:33;;;;;;;;;;;;;;;;;;6291293;28;19970;-90
2023/11/09 14:13:37;;;;;;;;;;;;;;;;;;6300500;28;19974;-91
2023/11/09 14:16:43;;;;;;;;;;;;;;;;;;6311258;28;20372;-91
2023/11/09 14:19:51;;;;;;;;;;;;;;;;;;6289597;28;19912;-90
2023/11/09 14:22:52;;;;;;;;;;;;;;;;;;6277002;28;19913;-90
2023/11/09 14:25:52;;;;;;;;;;;;;;;;;;6287549;28;20408;-91
2023/11/09 14:28:59;;;;;;;;;;;;;;;;;;6300482;28;20384;-91
2023/11/09 14:31:59;;;;;;;;;;;;;;;;;;6301624;28;20273;-90
2023/11/09 14:34:59;;;;;;;;;;;;;;;;;;6286746;28;19920;-92
2023/11/09 14:38:01;;;;;;;;;;;;;;;;;;6283396;28;19913;-91
2023/11/09 14:41:11;;;;;;;;;;;;;;;;;;6301075;28;19913;-90
2023/11/09 14:44:12;;;;;;;;;;;;;;;;;;6285332;28;19920;-90
2023/11/09 14:47:14;;;;;;;;;;;;;;;;;;6312676;28;19913;-91
2023/11/09 14:50:20;;;;;;;;;;;;;;;;;;6298906;28;19912;-91
2023/11/09 14:53:24;;;;;;;;;;;;;;;;;;6297133;28;19913;-89
2023/11/09 14:56:25;;;;;;;;;;;;;;;;;;6298960;28;19928;-91
2023/11/09 14:59:25;;;;;;;;;;;;;;;;;;6298190;28;19912;-83
2023/11/09 15:02:26;;;;;;;;;;;;;;;;;;6299334;28;19955;-83
2023/11/09 15:05:30;;;;;;;;;;;;;;;;;;6298373;28;19908;-84
2023/11/09 15:08:31;;;;;;;;;;;;;;;;;;6279314;28;20006;-84
2023/11/09 15:11:32;;;;;;;;;;;;;;;;;;6301512;28;19915;-83
2023/11/09 15:14:33;;;;;;;;;;;;;;;;;;6307619;28;19978;-83
2023/11/09 15:17:33;;;;;;;;;;;;;;;;;;6299011;28;20293;-85
2023/11/09 15:20:33;;;;;;;;;;;;;;;;;;6288587;28;19963;-83
2023/11/09 15:23:33;;;;;;;;;;;;;;;;;;6304687;28;19999;-84
2023/11/09 15:26:33;;;;;;;;;;;;;;;;;;6297592;28;19916;-83
2023/11/09 15:29:34;;;;;;;;;;;;;;;;;;6309936;28;19912;-83
2023/11/09 15:32:34;;;;;;;;;;;;;;;;;;6298052;28;19912;-83
2023/11/09 15:35:34;;;;;;;;;;;;;;;;;;6296547;28;20042;-83
2023/11/09 15:38:34;;;;;;;;;;;;;;;;;;6296882;28;19925;-83
2023/11/09 15:41:34;;;;;;;;;;;;;;;;;;6283939;28;19916;-83
2023/11/09 15:44:37;;;;;;;;;;;;;;;;;;6273248;28;19920;-84
2023/11/09 15:47:39;;;;;;;;;;;;;;;;;;6292132;28;20019;-84
2023/11/09 15:50:39;;;;;;;;;;;;;;;;;;6291701;28;19913;-84
2023/11/09 15:53:42;;;;;;;;;;;;;;;;;;6296192;28;19913;-84
2023/11/09 15:56:42;;;;;;;;;;;;;;;;;;6295834;28;19952;-83
2023/11/09 15:59:43;;;;;;;;;;;;;;;;;;6295997;28;19974;-83
2023/11/09 16:02:47;;;;;;;;;;;;;;;;;;6309684;28;19912;-84
2023/11/09 16:05:48;;;;;;;;;;;;;;;;;;6282396;28;19966;-83
2023/11/09 16:08:49;;;;;;;;;;;;;;;;;;6309737;28;20331;-92
2023/11/09 16:11:50;;;;;;;;;;;;;;;;;;6302172;28;19908;-89
2023/11/09 16:14:52;;;;;;;;;;;;;;;;;;6313674;28;20015;-91
2023/11/09 16:17:52;;;;;;;;;;;;;;;;;;6292598;28;19913;-89
2023/11/09 16:20:53;;;;;;;;;;;;;;;;;;6296824;28;19917;-91
2023/11/09 16:23:53;;;;;;;;;;;;;;;;;;6298931;28;20023;-92
2023/11/09 16:26:59;;;;;;;;;;;;;;;;;;6314593;28;19905;-91
2023/11/09 16:29:59;;;;;;;;;;;;;;;;;;6294368;28;19968;-91
2023/11/09 16:33:00;;;;;;;;;;;;;;;;;;6296528;28;19912;-91
2023/11/09 16:36:00;;;;;;;;;;;;;;;;;;6298356;28;19917;-90
2023/11/09 16:39:00;;;;;;;;;;;;;;;;;;6274458;28;19921;-91
2023/11/09 16:42:01;;;;;;;;;;;;;;;;;;6286854;28;19913;-89
2023/11/09 16:45:01;;;;;;;;;;;;;;;;;;6313411;28;19959;-90
2023/11/09 16:48:03;;;;;;;;;;;;;;;;;;6313963;28;19920;-92
2023/11/09 16:51:03;;;;;;;;;;;;;;;;;;6276842;28;20324;-91
2023/11/09 16:54:04;;;;;;;;;;;;;;;;;;6313467;28;19949;-91
2023/11/09 16:57:04;;;;;;;;;;;;;;;;;;6296534;28;19913;-90
2023/11/09 17:00:04;;;;;;;;;;;;;;;;;;6298338;28;19938;-88
2023/11/09 17:03:04;;;;;;;;;;;;;;;;;;6291995;28;19920;-88
2023/11/09 17:06:05;;;;;;;;;;;;;;;;;;6292322;28;19970;-83
2023/11/09 17:09:06;;;;;;;;;;;;;;;;;;6296139;28;19912;-84
2023/11/09 17:12:08;;;;;;;;;;;;;;;;;;6311337;28;20362;-84
2023/11/09 17:15:09;;;;;;;;;;;;;;;;;;6297136;28;19920;-84
2023/11/09 17:18:12;;;;;;;;;;;;;;;;;;6294917;28;19958;-81
2023/11/09 17:21:12;;;;;;;;;;;;;;;;;;6293040;28;20003;-83
2023/11/09 17:24:12;;;;;;;;;;;;;;;;;;6281911;28;20299;-85
2023/11/09 17:27:12;;;;;;;;;;;;;;;;;;6301316;28;19912;-82
2023/11/09 17:30:13;;;;;;;;;;;;;;;;;;6295841;28;19919;-82
2023/11/09 17:33:14;;;;;;;;;;;;;;;;;;6278093;28;19940;-83
2023/11/09 17:36:15;;;;;;;;;;;;;;;;;;6274155;28;19962;-83
2023/11/09 17:39:16;;;;;;;;;;;;;;;;;;6275178;28;20365;-83
2023/11/09 17:42:16;;;;;;;;;;;;;;;;;;6297188;28;20373;-83
2023/11/09 17:45:17;;;;;;;;;;;;;;;;;;6299777;28;19977;-84
2023/11/09 17:48:19;;;;;;;;;;;;;;;;;;6290306;28;20479;-83
2023/11/09 17:51:19;;;;;;;;;;;;;;;;;;6288924;28;19952;-83
2023/11/09 17:54:19;;;;;;;;;;;;;;;;;;6301272;28;19928;-87
2023/11/09 17:57:19;;;;;;;;;;;;;;;;;;6279126;28;19921;-84
2023/11/09 18:00:20;;;;;;;;;;;;;;;;;;6281655;28;19913;-85
2023/11/09 18:03:21;;;;;;;;;;;;;;;;;;6285668;28;20369;-86
2023/11/09 18:06:29;;;;;;;;;;;;;;;;;;6274642;28;19913;-85
2023/11/09 18:09:29;;;;;;;;;;;;;;;;;;6297158;28;19928;-86
2023/11/09 18:12:29;;;;;;;;;;;;;;;;;;6279855;28;19913;-85
2023/11/09 18:15:30;;;;;;;;;;;;;;;;;;6276982;28;20293;-84
2023/11/09 18:18:30;;;;;;;;;;;;;;;;;;6277777;28;20054;-82
2023/11/09 18:21:31;;;;;;;;;;;;;;;;;;6273734;28;20004;-79
2023/11/09 18:24:31;;;;;;;;;;;;;;;;;;6277266;28;20394;-78
2023/11/09 18:27:31;;;;;;;;;;;;;;;;;;6276725;28;19972;-77
2023/11/09 18:30:32;;;;;;;;;;;;;;;;;;6291884;28;19913;-78
2023/11/09 18:33:32;;;;;;;;;;;;;;;;;;6281214;28;20322;-81
2023/11/09 18:36:32;;;;;;;;;;;;;;;;;;6272756;28;20427;-79
2023/11/09 18:39:32;;;;;;;;;;;;;;;;;;6282725;28;19924;-81
2023/11/09 18:42:32;;;;;;;;;;;;;;;;;;6279222;28;19913;-83
2023/11/09 18:45:33;;;;;;;;;;;;;;;;;;6273807;28;19960;-81
2023/11/09 18:48:33;;;;;;;;;;;;;;;;;;6276256;28;19917;-81
2023/11/09 18:51:33;;;;;;;;;;;;;;;;;;6280256;28;20008;-81
2023/11/09 18:54:33;;;;;;;;;;;;;;;;;;6275989;28;19960;-81
2023/11/09 18:57:35;;;;;;;;;;;;;;;;;;6280265;28;20014;-80
2023/11/09 19:00:35;;;;;;;;;;;;;;;;;;6274584;28;19965;-81
2023/11/09 19:03:35;;;;;;;;;;;;;;;;;;6275591;28;19924;-81
2023/11/09 19:06:35;;;;;;;;;;;;;;;;;;6280271;28;19924;-82
2023/11/09 19:09:36;;;;;;;;;;;;;;;;;;6281845;28;19912;-82
2023/11/09 19:12:36;;;;;;;;;;;;;;;;;;6279315;28;19924;-82
2023/11/09 19:15:36;;;;;;;;;;;;;;;;;;6277212;28;19927;-82
2023/11/09 19:18:36;;;;;;;;;;;;;;;;;;6281454;28;19921;-81
2023/11/09 19:21:37;;;;;;;;;;;;;;;;;;6291199;28;19959;-81
2023/11/09 19:24:37;;;;;;;;;;;;;;;;;;5931598;28;10000429;-88
2023/11/09 19:27:37;;;;;;;;;;;;;;;;;;6274502;28;19917;-86
2023/11/09 19:30:38;;;;;;;;;;;;;;;;;;6276320;28;19912;-87
2023/11/09 19:33:38;;;;;;;;;;;;;;;;;;6276907;28;19939;-85
2023/11/09 19:36:38;;;;;;;;;;;;;;;;;;6279351;28;19998;-82
2023/11/09 19:39:39;;;;;;;;;;;;;;;;;;6279562;28;19927;-85
2023/11/09 19:42:40;;;;;;;;;;;;;;;;;;6282659;28;19917;-85
2023/11/09 19:45:42;;;;;;;;;;;;;;;;;;6285381;28;20182;-87
2023/11/09 19:48:42;;;;;;;;;;;;;;;;;;6275686;28;19976;-89
2023/11/09 19:51:43;;;;;;;;;;;;;;;;;;6268097;28;20556;-91
2023/11/09 19:54:43;;;;;;;;;;;;;;;;;;6280122;28;19925;-85
2023/11/09 19:57:44;;;;;;;;;;;;;;;;;;6280388;28;20009;-87
2023/11/09 20:00:44;;;;;;;;;;;;;;;;;;6272804;28;19920;-85
2023/11/09 20:03:44;;;;;;;;;;;;;;;;;;6265074;28;19966;-87
2023/11/09 20:06:44;;;;;;;;;;;;;;;;;;5937226;28;9999939;-88
2023/11/09 20:09:45;;;;;;;;;;;;;;;;;;6292031;28;19920;-86
2023/11/09 20:12:45;;;;;;;;;;;;;;;;;;6286373;28;19986;-86
2023/11/09 20:15:45;;;;;;;;;;;;;;;;;;6295628;28;19964;-84
2023/11/09 20:18:48;;;;;;;;;;;;;;;;;;6294957;28;19927;-85
2023/11/09 20:21:49;;;;;;;;;;;;;;;;;;6271970;28;19921;-84
2023/11/09 20:24:49;;;;;;;;;;;;;;;;;;6293526;28;19921;-84
2023/11/09 20:27:50;;;;;;;;;;;;;;;;;;6278753;28;19916;-84
2023/11/09 20:30:51;;;;;;;;;;;;;;;;;;6304087;28;20269;-87
2023/11/09 20:33:52;;;;;;;;;;;;;;;;;;6305583;28;19962;-85
2023/11/09 20:36:52;;;;;;;;;;;;;;;;;;6285819;28;19960;-85
2023/11/09 20:39:54;;;;;;;;;;;;;;;;;;6276342;28;19950;-86
2023/11/09 20:42:54;;;;;;;;;;;;;;;;;;6276276;28;19921;-86